createdAt,value
2018-06-12T00:02:14.552Z,100452.91
2018-06-12T00:04:42.875Z,100455.69
2018-06-12T00:07:11.189Z,100457.45
2018-06-12T00:09:39.511Z,100454.33
2018-06-12T00:12:07.252Z,100454.34
2018-06-12T00:14:36.206Z,100455.57
2018-06-12T00:17:04.530Z,100458.30
2018-06-12T00:19:32.867Z,100452.38
2018-06-12T00:22:00.614Z,100449.66
2018-06-12T00:24:29.521Z,100441.98
2018-06-12T00:26:57.267Z,100430.03
2018-06-12T00:29:26.168Z,100429.98
2018-06-12T00:31:54.491Z,100433.85
2018-06-12T00:34:22.236Z,100426.27
2018-06-12T00:36:50.558Z,100422.68
2018-06-12T00:39:19.455Z,100419.30
2018-06-12T00:41:47.780Z,100409.69
2018-06-12T00:44:15.534Z,100407.74
2018-06-12T00:46:44.437Z,100406.53
2018-06-12T00:49:12.176Z,100403.08
2018-06-12T00:51:41.075Z,100399.49
2018-06-12T00:54:09.399Z,100397.31
2018-06-12T00:56:46.527Z,100397.77
2018-06-12T00:59:14.273Z,100395.09
2018-06-12T01:01:42.589Z,100390.59
2018-06-12T01:04:11.487Z,100394.78
2018-06-12T01:06:39.813Z,100397.08
2018-06-12T01:09:08.117Z,100404.62
2018-06-12T01:11:36.465Z,100404.70
2018-06-12T01:14:04.781Z,100396.81
2018-06-12T01:16:33.158Z,100398.16
2018-06-12T01:19:00.903Z,100397.94
2018-06-12T01:21:29.232Z,100403.23
2018-06-12T01:23:58.141Z,100407.45
2018-06-12T01:26:26.458Z,100408.31
2018-06-12T01:28:54.201Z,100408.98
2018-06-12T01:31:23.089Z,100408.28
2018-06-12T01:33:51.420Z,100404.35
2018-06-12T01:36:19.736Z,100403.09
2018-06-12T01:38:47.474Z,100405.97
2018-06-12T01:41:16.377Z,100422.27
2018-06-12T01:43:44.702Z,100424.56
2018-06-12T01:46:13.021Z,100424.08
2018-06-12T01:48:41.340Z,100424.23
2018-06-12T01:51:09.882Z,100434.07
2018-06-12T01:53:37.973Z,100431.28
2018-06-12T01:56:06.293Z,100439.70
2018-06-12T01:58:34.613Z,100437.75
2018-06-12T02:01:02.646Z,100439.31
2018-06-12T02:03:31.572Z,100437.41
2018-06-12T02:05:59.321Z,100435.19
2018-06-12T02:08:28.215Z,100427.81
2018-06-12T02:10:56.534Z,100429.77
2018-06-12T02:13:24.852Z,100423.79
2018-06-12T02:15:52.600Z,100427.09
2018-06-12T02:18:21.522Z,100424.13
2018-06-12T02:20:49.825Z,100422.66
2018-06-12T02:23:18.144Z,100418.16
2018-06-12T02:25:45.886Z,100410.11
2018-06-12T02:28:14.792Z,100406.02
2018-06-12T02:30:43.112Z,100402.23
2018-06-12T02:33:11.423Z,100394.26
2018-06-12T02:35:39.739Z,100393.95
2018-06-12T02:38:07.483Z,100394.43
2018-06-12T02:40:36.387Z,100391.33
2018-06-12T02:43:04.706Z,100388.45
2018-06-12T02:45:33.034Z,100391.22
2018-06-12T02:48:01.354Z,100393.66
2018-06-12T02:50:29.681Z,100395.62
2018-06-12T02:52:57.417Z,100399.61
2018-06-12T02:55:25.915Z,100395.45
2018-06-12T02:57:54.631Z,100393.33
2018-06-12T03:00:22.983Z,100392.43
2018-06-12T03:02:50.723Z,100391.77
2018-06-12T03:05:19.617Z,100394.85
2018-06-12T03:07:47.355Z,100388.58
2018-06-12T03:10:16.253Z,100388.17
2018-06-12T03:12:44.575Z,100395.48
2018-06-12T03:15:12.907Z,100390.02
2018-06-12T03:17:41.230Z,100386.56
2018-06-12T03:20:09.858Z,100383.58
2018-06-12T03:22:37.845Z,100390.44
2018-06-12T03:25:06.740Z,100386.26
2018-06-12T03:27:35.063Z,100379.29
2018-06-12T03:30:02.800Z,100371.98
2018-06-12T03:32:31.708Z,100374.30
2018-06-12T03:35:00.027Z,100374.03
2018-06-12T03:37:28.342Z,100373.77
2018-06-12T03:39:56.664Z,100372.36
2018-06-12T03:42:24.990Z,100369.56
2018-06-12T03:44:53.309Z,100372.34
2018-06-12T03:47:21.114Z,100368.66
2018-06-12T03:49:49.958Z,100370.98
2018-06-12T03:52:18.313Z,100360.77
2018-06-12T03:54:46.019Z,100357.11
2018-06-12T03:57:14.924Z,100358.96
2018-06-12T03:59:43.237Z,100358.42
2018-06-12T04:02:10.978Z,100353.22
2018-06-12T04:04:39.869Z,100356.39
2018-06-12T04:07:08.190Z,100363.13
2018-06-12T04:09:35.930Z,100357.52
2018-06-12T04:12:04.473Z,100358.71
2018-06-12T04:14:33.171Z,100358.98
2018-06-12T04:17:01.493Z,100362.44
2018-06-12T04:19:29.248Z,100363.11
2018-06-12T04:21:57.595Z,100366.56
2018-06-12T04:24:26.494Z,100356.45
2018-06-12T04:26:54.819Z,100358.14
2018-06-12T04:29:23.146Z,100363.91
2018-06-12T04:31:51.466Z,100361.20
2018-06-12T04:34:19.220Z,100356.11
2018-06-12T04:36:47.538Z,100356.12
2018-06-12T04:39:16.440Z,100355.87
2018-06-12T04:41:44.753Z,100359.01
2018-06-12T04:44:13.091Z,100358.86
2018-06-12T04:46:41.409Z,100357.25
2018-06-12T04:49:09.725Z,100354.61
2018-06-12T04:51:38.062Z,100349.71
2018-06-12T04:54:06.383Z,100360.56
2018-06-12T04:56:34.702Z,100358.81
2018-06-12T04:59:03.039Z,100355.47
2018-06-12T05:01:31.377Z,100359.69
2018-06-12T05:03:59.705Z,100364.64
2018-06-12T05:06:28.039Z,100362.70
2018-06-12T05:08:55.785Z,100362.05
2018-06-12T05:11:24.111Z,100361.20
2018-06-12T05:13:53.012Z,100360.14
2018-06-12T05:16:21.360Z,100362.36
2018-06-12T05:18:49.704Z,100371.53
2018-06-12T05:21:18.824Z,100368.47
2018-06-12T05:23:47.436Z,100367.89
2018-06-12T05:26:15.561Z,100364.20
2018-06-12T05:28:43.361Z,100364.75
2018-06-12T05:31:12.271Z,100367.61
2018-06-12T05:33:40.583Z,100370.26
2018-06-12T05:36:08.898Z,100378.53
2018-06-12T05:38:36.728Z,100370.77
2018-06-12T05:41:05.569Z,100371.80
2018-06-12T05:43:34.576Z,100378.70
2018-06-12T05:46:03.186Z,100386.59
2018-06-12T05:48:31.520Z,100386.67
2018-06-12T05:50:59.855Z,100373.61
2018-06-12T05:53:28.193Z,100373.16
2018-06-12T05:55:56.035Z,100384.55
2018-06-12T05:58:25.069Z,100385.34
2018-06-12T06:00:53.166Z,100384.28
2018-06-12T06:03:21.493Z,100385.90
2018-06-12T06:05:49.847Z,100391.15
2018-06-12T06:08:18.184Z,100392.25
2018-06-12T06:10:46.496Z,100393.83
2018-06-12T06:13:14.827Z,100398.08
2018-06-12T06:15:43.166Z,100394.13
2018-06-12T06:18:11.505Z,100396.80
2018-06-12T06:20:39.829Z,100398.60
2018-06-12T06:23:08.223Z,100398.25
2018-06-12T06:25:36.610Z,100408.00
2018-06-12T06:28:04.951Z,100402.15
2018-06-12T06:30:33.279Z,100405.95
2018-06-12T06:33:01.431Z,100407.48
2018-06-12T06:35:29.931Z,100422.27
2018-06-12T06:37:58.257Z,100408.86
2018-06-12T06:40:26.654Z,100426.42
2018-06-12T06:42:55.015Z,100426.52
2018-06-12T06:45:23.323Z,100418.94
2018-06-12T06:47:51.662Z,100427.23
2018-06-12T06:50:19.423Z,100429.41
2018-06-12T06:52:48.323Z,100433.13
2018-06-12T06:55:16.705Z,100427.97
2018-06-12T06:57:44.414Z,100434.14
2018-06-12T07:00:13.324Z,100439.95
2018-06-12T07:02:41.654Z,100439.20
2018-06-12T07:05:10.007Z,100452.67
2018-06-12T07:07:37.741Z,100444.02
2018-06-12T07:10:06.655Z,100445.45
2018-06-12T07:12:34.993Z,100457.37
2018-06-12T07:15:02.762Z,100450.34
2018-06-12T07:17:31.640Z,100449.59
2018-06-12T07:19:59.426Z,100454.80
2018-06-12T07:22:28.281Z,100450.71
2018-06-12T07:24:56.609Z,100455.47
2018-06-12T07:27:24.994Z,100452.62
2018-06-12T07:29:53.428Z,100462.89
2018-06-12T07:32:21.764Z,100457.31
2018-06-12T07:34:50.075Z,100457.31
2018-06-12T07:37:18.393Z,100454.41
2018-06-12T07:39:46.726Z,100454.91
2018-06-12T07:42:15.269Z,100469.78
2018-06-12T07:44:42.786Z,100464.73
2018-06-12T07:47:11.686Z,100449.36
2018-06-12T07:49:40.010Z,100456.70
2018-06-12T07:52:08.332Z,100454.13
2018-06-12T07:54:36.672Z,100456.08
2018-06-12T07:57:04.429Z,100460.25
2018-06-12T07:59:33.326Z,100467.73
2018-06-12T08:02:01.648Z,100459.00
2018-06-12T08:04:30.230Z,100458.07
2018-06-12T08:06:57.780Z,100447.27
2018-06-12T08:09:26.672Z,100458.25
2018-06-12T08:11:55.012Z,100456.53
2018-06-12T08:14:23.350Z,100474.67
2018-06-12T08:16:51.697Z,100460.83
2018-06-12T08:19:19.457Z,100454.06
2018-06-12T08:21:48.362Z,100469.09
2018-06-12T08:24:16.697Z,100463.09
2018-06-12T08:26:44.437Z,100467.52
2018-06-12T08:29:13.390Z,100471.95
2018-06-12T08:31:41.742Z,100470.01
2018-06-12T08:34:10.077Z,100482.34
2018-06-12T08:36:37.821Z,100485.55
2018-06-12T08:39:06.740Z,100484.24
2018-06-12T08:41:35.091Z,100489.70
2018-06-12T08:44:03.408Z,100494.08
2018-06-12T08:46:31.798Z,100490.09
2018-06-12T08:48:59.496Z,100492.95
2018-06-12T08:51:27.848Z,100482.91
2018-06-12T08:53:56.762Z,100493.11
2018-06-12T08:56:25.091Z,100491.59
2018-06-12T08:58:53.432Z,100517.08
2018-06-12T09:01:21.740Z,100511.97
2018-06-12T09:03:50.073Z,100490.25
2018-06-12T09:06:18.649Z,100495.98
2018-06-12T09:08:46.779Z,100506.37
2018-06-12T09:11:14.535Z,100502.09
2018-06-12T09:13:43.291Z,100509.52
2018-06-12T09:16:11.791Z,100516.11
2018-06-12T09:18:40.129Z,100510.29
2018-06-12T09:21:08.444Z,100505.54
2018-06-12T09:23:36.194Z,100516.56
2018-06-12T09:26:05.088Z,100520.11
2018-06-12T09:28:32.837Z,100515.14
2018-06-12T09:31:02.012Z,100521.52
2018-06-12T09:33:30.114Z,100525.05
2018-06-12T09:35:58.445Z,100522.20
2018-06-12T09:38:26.769Z,100527.53
2018-06-12T09:40:55.107Z,100532.51
2018-06-12T09:43:23.453Z,100532.04
2018-06-12T09:45:51.201Z,100524.80
2018-06-12T09:48:19.626Z,100524.64
2018-06-12T09:50:48.456Z,100521.49
2018-06-12T09:53:16.775Z,100532.45
2018-06-12T09:55:45.131Z,100531.96
2018-06-12T09:58:13.446Z,100534.22
2018-06-12T10:00:42.636Z,100549.45
2018-06-12T10:03:12.600Z,100558.70
2018-06-12T10:05:40.857Z,100549.36
2018-06-12T10:08:08.643Z,100559.83
2018-06-12T10:10:37.573Z,100554.09
2018-06-12T10:13:05.894Z,100562.36
2018-06-12T10:15:38.722Z,100561.03
2018-06-12T10:18:07.049Z,100566.39
2018-06-12T10:20:35.958Z,100566.50
2018-06-12T10:23:04.350Z,100564.98
2018-06-12T10:25:32.100Z,100553.55
2018-06-12T10:28:01.002Z,100576.48
2018-06-12T10:30:29.764Z,100576.85
2018-06-12T10:32:58.461Z,100565.25
2018-06-12T10:35:26.572Z,100565.70
2018-06-12T10:37:54.930Z,100561.69
2018-06-12T10:40:23.746Z,100566.37
2018-06-12T10:42:53.162Z,100565.80
2018-06-12T10:45:21.472Z,100561.48
2018-06-12T10:47:50.888Z,100567.95
2018-06-12T10:50:19.249Z,100560.39
2018-06-12T10:52:48.032Z,100566.28
2018-06-12T10:55:16.122Z,100563.38
2018-06-12T10:57:44.669Z,100565.97
2018-06-12T11:00:12.197Z,100573.80
2018-06-12T11:02:43.290Z,100567.36
2018-06-12T11:05:10.741Z,100566.02
2018-06-12T11:07:40.317Z,100557.92
2018-06-12T11:10:09.350Z,100558.88
2018-06-12T11:12:37.674Z,100565.44
2018-06-12T11:15:05.552Z,100566.37
2018-06-12T11:17:34.371Z,100570.17
2018-06-12T11:20:02.924Z,100562.58
2018-06-12T11:22:31.043Z,100567.99
2018-06-12T11:24:59.374Z,100568.89
2018-06-12T11:27:27.720Z,100564.16
2018-06-12T11:29:56.041Z,100577.30
2018-06-12T11:32:26.349Z,100569.55
2018-06-12T11:34:53.253Z,100565.22
2018-06-12T11:37:24.725Z,100562.25
2018-06-12T11:39:51.850Z,100572.55
2018-06-12T11:42:20.176Z,100578.19
2018-06-12T11:44:48.516Z,100567.00
2018-06-12T11:47:16.863Z,100569.42
2018-06-12T11:49:46.045Z,100572.02
2018-06-12T11:52:14.360Z,100572.19
2018-06-12T11:54:43.430Z,100574.29
2018-06-12T11:57:11.586Z,100571.25
2018-06-12T11:59:39.931Z,100589.49
2018-06-12T12:02:07.695Z,100583.11
2018-06-12T12:04:36.612Z,100581.36
2018-06-12T12:07:04.930Z,100590.85
2018-06-12T12:09:32.679Z,100583.25
2018-06-12T12:12:01.057Z,100595.12
2018-06-12T12:14:30.184Z,100588.27
2018-06-12T12:16:58.537Z,100592.86
2018-06-12T12:19:26.834Z,100589.48
2018-06-12T12:21:55.158Z,100593.33
2018-06-12T12:24:22.939Z,100597.34
2018-06-12T12:26:52.012Z,100595.94
2018-06-12T12:29:20.349Z,100597.08
2018-06-12T12:31:48.700Z,100597.98
2018-06-12T12:34:17.677Z,100598.55
2018-06-12T12:36:46.124Z,100605.14
2018-06-12T12:39:14.443Z,100602.23
2018-06-12T12:41:42.323Z,100607.81
2018-06-12T12:44:11.375Z,100602.81
2018-06-12T12:46:39.722Z,100602.95
2018-06-12T12:49:07.545Z,100606.89
2018-06-12T12:51:36.390Z,100605.45
2018-06-12T12:54:04.718Z,100610.05
2018-06-12T12:56:33.769Z,100603.25
2018-06-12T12:59:01.374Z,100607.38
2018-06-12T13:01:29.128Z,100613.57
2018-06-12T13:03:58.025Z,100610.59
2018-06-12T13:06:26.381Z,100610.89
2018-06-12T13:08:54.118Z,100613.11
2018-06-12T13:11:22.826Z,100617.94
2018-06-12T13:13:52.349Z,100626.13
2018-06-12T13:16:20.396Z,100623.87
2018-06-12T13:18:48.124Z,100624.10
2018-06-12T13:21:17.038Z,100632.81
2018-06-12T13:23:45.596Z,100633.43
2018-06-12T13:26:13.922Z,100632.64
2018-06-12T13:28:42.268Z,100638.83
2018-06-12T13:31:11.001Z,100639.34
2018-06-12T13:33:39.105Z,100637.08
2018-06-12T13:36:07.432Z,100639.98
2018-06-12T13:38:35.819Z,100644.17
2018-06-12T13:41:04.164Z,100645.31
2018-06-12T13:43:32.746Z,100639.63
2018-06-12T13:46:01.074Z,100640.64
2018-06-12T13:48:30.510Z,100639.53
2018-06-12T13:50:57.772Z,100633.92
2018-06-12T13:53:26.126Z,100631.94
2018-06-12T13:55:54.490Z,100636.64
2018-06-12T13:58:22.242Z,100634.98
2018-06-12T14:00:51.154Z,100634.63
2018-06-12T14:03:18.906Z,100636.33
2018-06-12T14:05:47.250Z,100640.08
2018-06-12T14:08:16.150Z,100643.16
2018-06-12T14:10:44.491Z,100638.98
2018-06-12T14:13:12.828Z,100637.30
2018-06-12T14:15:40.574Z,100645.86
2018-06-12T14:18:08.930Z,100647.93
2018-06-12T14:20:37.878Z,100648.25
2018-06-12T14:23:06.185Z,100655.44
2018-06-12T14:25:34.512Z,100658.47
2018-06-12T14:28:02.834Z,100661.06
2018-06-12T14:30:30.598Z,100658.41
2018-06-12T14:32:59.503Z,100654.39
2018-06-12T14:35:27.254Z,100660.77
2018-06-12T14:37:56.178Z,100661.23
2018-06-12T14:40:25.655Z,100664.23
2018-06-12T14:42:53.960Z,100662.11
2018-06-12T14:45:22.405Z,100662.33
2018-06-12T14:47:51.021Z,100664.73
2018-06-12T14:50:19.355Z,100664.44
2018-06-12T14:52:49.085Z,100672.31
2018-06-12T14:55:18.779Z,100664.13
2018-06-12T14:57:46.931Z,100664.89
2018-06-12T15:00:15.422Z,100669.34
2018-06-12T15:02:43.756Z,100666.22
2018-06-12T15:05:12.132Z,100676.41
2018-06-12T15:07:40.664Z,100672.92
2018-06-12T15:10:09.791Z,100675.09
2018-06-12T15:12:38.140Z,100676.62
2018-06-12T15:15:06.470Z,100677.75
2018-06-12T15:17:34.204Z,100677.69
2018-06-12T15:20:03.117Z,100681.73
2018-06-12T15:22:31.435Z,100679.59
2018-06-12T15:24:59.193Z,100681.70
2018-06-12T15:27:28.118Z,100683.34
2018-06-12T15:29:56.457Z,100680.87
2018-06-12T15:32:25.850Z,100680.28
2018-06-12T15:34:54.187Z,100689.71
2018-06-12T15:37:22.504Z,100686.92
2018-06-12T15:39:50.842Z,100684.97
2018-06-12T15:42:19.441Z,100692.16
2018-06-12T15:44:47.614Z,100692.17
2018-06-12T15:47:15.891Z,100691.08
2018-06-12T15:49:44.210Z,100696.05
2018-06-12T15:55:23.296Z,100700.93
2018-06-12T15:57:53.552Z,100706.56
2018-06-12T16:00:32.175Z,100706.19
2018-06-12T16:06:17.541Z,100707.05
2018-06-12T16:17:40.329Z,100714.52
2018-06-12T16:20:32.543Z,100709.38
2018-06-12T16:26:19.135Z,100705.51
2018-06-12T16:28:57.839Z,100708.31
2018-06-12T16:31:33.774Z,100702.80
2018-06-12T16:37:27.265Z,100706.12
2018-06-12T16:40:07.279Z,100699.58
2018-06-12T16:42:41.632Z,100702.11
2018-06-12T16:45:24.042Z,100697.48
2018-06-12T16:48:14.732Z,100702.50
2018-06-12T16:51:01.412Z,100701.88
2018-06-12T16:53:38.473Z,100700.36
2018-06-12T16:56:15.891Z,100705.64
2018-06-12T16:58:59.037Z,100698.11
2018-06-12T17:01:27.769Z,100701.20
2018-06-12T17:03:55.580Z,100698.88
2018-06-12T17:06:24.489Z,100701.00
2018-06-12T17:08:52.826Z,100702.50
2018-06-12T17:11:20.567Z,100705.70
2018-06-12T17:13:49.475Z,100704.73
2018-06-12T17:16:17.803Z,100705.36
2018-06-12T17:18:46.129Z,100705.08
2018-06-12T17:21:14.446Z,100709.66
2018-06-12T17:23:42.784Z,100707.70
2018-06-12T17:26:10.527Z,100704.84
2018-06-12T17:28:39.426Z,100707.36
2018-06-12T17:31:08.033Z,100716.97
2018-06-12T17:33:35.778Z,100713.28
2018-06-12T17:36:04.682Z,100717.14
2018-06-12T17:38:33.038Z,100718.28
2018-06-12T17:41:01.386Z,100719.89
2018-06-12T17:43:29.809Z,100719.84
2018-06-12T17:45:58.798Z,100721.61
2018-06-12T17:48:27.659Z,100716.34
2018-06-12T17:50:56.760Z,100715.48
2018-06-12T17:53:25.763Z,100721.47
2018-06-12T17:55:55.798Z,100719.92
2018-06-12T17:58:26.843Z,100726.06
2018-06-12T18:00:57.453Z,100724.59
2018-06-12T18:03:26.493Z,100727.29
2018-06-12T18:05:55.462Z,100727.41
2018-06-12T18:08:24.376Z,100724.77
2018-06-12T18:10:54.066Z,100724.59
2018-06-12T18:13:23.727Z,100728.61
2018-06-12T18:15:53.500Z,100729.75
2018-06-12T18:18:22.181Z,100730.59
2018-06-12T18:20:52.440Z,100735.64
2018-06-12T18:23:21.123Z,100734.55
2018-06-12T18:25:49.967Z,100736.49
2018-06-12T18:28:18.837Z,100737.02
2018-06-12T18:30:47.374Z,100738.66
2018-06-12T18:33:15.139Z,100737.08
2018-06-12T18:35:44.218Z,100737.02
2018-06-12T18:38:12.536Z,100741.91
2018-06-12T18:40:40.271Z,100745.95
2018-06-12T18:43:09.172Z,100749.02
2018-06-12T18:45:37.590Z,100743.53
2018-06-12T18:48:09.502Z,100749.92
2018-06-12T18:50:37.830Z,100750.66
2018-06-12T18:53:06.167Z,100749.52
2018-06-12T18:55:33.909Z,100750.84
2018-06-12T18:58:03.048Z,100751.16
2018-06-12T19:00:31.213Z,100754.36
2018-06-12T19:02:59.507Z,100753.82
2018-06-12T19:05:27.884Z,100756.87
2018-06-12T19:07:56.213Z,100759.36
2018-06-12T19:10:24.559Z,100766.37
2018-06-12T19:12:52.872Z,100761.08
2018-06-12T19:15:21.228Z,100763.02
2018-06-12T19:17:49.564Z,100764.21
2018-06-12T19:20:17.900Z,100765.09
2018-06-12T19:22:45.658Z,100768.14
2018-06-12T19:25:14.693Z,100763.39
2018-06-12T19:27:43.030Z,100762.13
2018-06-12T19:30:11.385Z,100764.59
2018-06-12T19:32:39.745Z,100764.97
2018-06-12T19:35:07.517Z,100769.98
2018-06-12T19:37:36.442Z,100777.08
2018-06-12T19:40:04.794Z,100776.20
2018-06-12T19:42:33.266Z,100774.48
2018-06-12T19:45:01.908Z,100778.98
2018-06-12T19:47:31.150Z,100779.35
2018-06-12T19:49:59.486Z,100785.59
2018-06-12T19:52:27.823Z,100787.30
2018-06-12T19:54:56.155Z,100791.12
2018-06-12T19:57:24.481Z,100790.19
2018-06-12T19:59:52.858Z,100798.00
2018-06-12T20:02:21.218Z,100794.98
2018-06-12T20:04:49.552Z,100795.56
2018-06-12T20:07:17.885Z,100800.96
2018-06-12T20:09:46.216Z,100799.75
2018-06-12T20:12:14.539Z,100801.48
2018-06-12T20:14:42.312Z,100809.45
2018-06-12T20:17:11.217Z,100806.43
2018-06-12T20:19:39.012Z,100804.21
2018-06-12T20:22:07.317Z,100804.13
2018-06-12T20:24:35.650Z,100812.31
2018-06-12T20:27:04.547Z,100812.39
2018-06-12T20:29:32.878Z,100813.11
2018-06-12T20:32:01.201Z,100808.37
2018-06-12T20:34:29.529Z,100809.52
2018-06-12T20:36:57.280Z,100808.48
2018-06-12T20:39:26.185Z,100808.41
2018-06-12T20:41:54.011Z,100811.61
2018-06-12T20:44:22.937Z,100809.44
2018-06-12T20:46:51.277Z,100806.30
2018-06-12T20:49:19.623Z,100803.29
2018-06-12T20:51:49.198Z,100806.11
2018-06-12T20:54:29.938Z,100805.70
2018-06-12T21:00:20.438Z,100797.00
2018-06-12T21:03:05.686Z,100791.12
2018-06-12T21:08:24.865Z,100787.61
2018-06-12T21:11:01.253Z,100790.69
2018-06-12T21:13:51.897Z,100787.06
2018-06-12T21:16:30.240Z,100790.80
2018-06-12T21:19:09.316Z,100785.03
2018-06-12T21:33:53.791Z,100791.28
2018-06-12T21:42:36.887Z,100796.09
2018-06-12T21:45:24.114Z,100793.07
2018-06-12T21:48:04.115Z,100796.03
2018-06-12T21:50:42.281Z,100795.12
2018-06-12T21:53:22.679Z,100797.87
2018-06-12T21:55:59.273Z,100797.83
2018-06-12T21:58:39.024Z,100793.86
2018-06-12T22:01:16.289Z,100791.72
2018-06-12T22:06:54.607Z,100786.84
2018-06-12T22:09:32.871Z,100786.03
2018-06-12T22:12:09.091Z,100778.68
2018-06-12T22:14:46.255Z,100778.61
2018-06-12T22:17:26.520Z,100773.06
2018-06-12T22:20:20.255Z,100776.18
2018-06-12T22:22:59.216Z,100777.92
2018-06-12T22:25:43.241Z,100777.86
2018-06-12T22:28:20.513Z,100783.59
2018-06-12T22:31:07.514Z,100785.20
2018-06-12T22:33:50.236Z,100780.55
2018-06-12T22:36:27.362Z,100786.80
2018-06-12T22:39:04.251Z,100786.97
2018-06-12T22:41:40.989Z,100785.10
2018-06-12T22:44:11.933Z,100782.30
2018-06-12T22:47:04.367Z,100782.64
2018-06-12T22:49:41.133Z,100784.33
2018-06-12T22:52:18.269Z,100780.30
2018-06-12T22:54:55.555Z,100774.45
2018-06-12T22:57:44.103Z,100775.64
2018-06-12T23:00:20.853Z,100779.23
2018-06-12T23:02:55.913Z,100779.95
2018-06-12T23:05:51.553Z,100782.06
2018-06-12T23:08:28.918Z,100784.20
2018-06-12T23:11:09.209Z,100789.05
2018-06-12T23:13:45.530Z,100789.31
2018-06-12T23:19:38.540Z,100782.28
2018-06-12T23:31:10.278Z,100772.63
2018-06-12T23:33:49.011Z,100772.17
2018-06-12T23:39:26.080Z,100768.70
2018-06-12T23:42:15.887Z,100768.80
2018-06-12T23:45:05.183Z,100772.89
2018-06-12T23:47:47.346Z,100774.03
2018-06-12T23:50:21.993Z,100769.46
2018-06-12T23:52:52.144Z,100777.01
2018-06-12T23:55:54.827Z,100779.23
2018-06-12T23:58:30.749Z,100785.20
